In Rescue
 
Open Full Screen Window  High Contrast Mode
Wind Gusting 00 knots
06
May 25, 2022 8:13 PM CDT
Present Weather: Rain
Weather Information
Wind Direction
  360 °
Wind Speed
  06 kt (7 mph)
Wind Gust
  00 kt (0 mph)
Altimeter
29.81 in
Visibility
3 SM
Temperature
11° C
52° F
Dewpoint
10° C
50° F
Humidity
94%
1hr Rain Fall
00.00 in.
24hr Rain Fall
00.55 in.
Sky Condition
Missing
MVFR

METAR KTOB 260113Z AUTO 36006KT 3SM RA 11/10 A2981 RMK AO2

FAA Disclaimer: The data displayed is for advisory purposes only and is not to be used for flight planning or operations.
Missing Cloud Data